Terminal Aerodrome Forecast
Issued by NWS

Home | Current Version | Previous Version | Text Only | Print | Product List | Glossary On
Versions: 1 2 3 4 5 6 7 8 9 10 11 12 13 14 15 16 17 18 19 20 21 22 23
000
FTUS45 KLKN 212320
TAFELY
TAF
KELY 212320Z 2200/2224 25010KT P6SM SCT040 BKN060
     FM220600 18014KT P6SM OVC100
      TEMPO 2216/2218 6SM -SN BR BKN040
     FM221800 17016G25KT 2SM -SN BLSN BKN012 OVC020=

USA.gov is the U.S. government's official web portal to all federal, state and local government web resources and services.